sensor_id;sensor_type;location;lat;lon;timestamp;P1;durP1;ratioP1;P2;durP2;ratioP2
18853;SDS011;9556;49.374;19.446;2023-02-28T00:00:18;7.93;;;4.60;;
18853;SDS011;9556;49.374;19.446;2023-02-28T00:02:45;7.22;;;4.38;;
18853;SDS011;9556;49.374;19.446;2023-02-28T00:05:14;7.60;;;4.80;;
18853;SDS011;9556;49.374;19.446;2023-02-28T00:07:41;6.93;;;4.40;;
18853;SDS011;9556;49.374;19.446;2023-02-28T00:10:10;7.40;;;4.67;;
18853;SDS011;9556;49.374;19.446;2023-02-28T00:12:39;9.65;;;5.32;;
18853;SDS011;9556;49.374;19.446;2023-02-28T00:15:07;6.50;;;4.23;;
18853;SDS011;9556;49.374;19.446;2023-02-28T00:17:34;6.77;;;4.13;;
18853;SDS011;9556;49.374;19.446;2023-02-28T00:20:02;6.07;;;3.87;;
18853;SDS011;9556;49.374;19.446;2023-02-28T00:22:33;6.57;;;4.03;;
18853;SDS011;9556;49.374;19.446;2023-02-28T00:25:00;6.37;;;3.90;;
18853;SDS011;9556;49.374;19.446;2023-02-28T00:27:27;7.03;;;4.13;;
18853;SDS011;9556;49.374;19.446;2023-02-28T00:29:56;6.80;;;4.18;;
18853;SDS011;9556;49.374;19.446;2023-02-28T00:32:23;6.10;;;3.93;;
18853;SDS011;9556;49.374;19.446;2023-02-28T00:34:50;6.07;;;3.90;;
18853;SDS011;9556;49.374;19.446;2023-02-28T00:37:17;6.57;;;3.87;;
18853;SDS011;9556;49.374;19.446;2023-02-28T00:39:44;7.35;;;3.92;;
18853;SDS011;9556;49.374;19.446;2023-02-28T00:42:12;6.20;;;4.13;;
18853;SDS011;9556;49.374;19.446;2023-02-28T00:44:39;5.80;;;3.60;;
18853;SDS011;9556;49.374;19.446;2023-02-28T00:47:07;6.30;;;3.80;;
18853;SDS011;9556;49.374;19.446;2023-02-28T00:49:35;6.22;;;3.83;;
18853;SDS011;9556;49.374;19.446;2023-02-28T00:52:02;6.77;;;3.80;;
18853;SDS011;9556;49.374;19.446;2023-02-28T00:54:30;6.07;;;3.60;;
18853;SDS011;9556;49.374;19.446;2023-02-28T00:56:57;6.15;;;3.80;;
18853;SDS011;9556;49.374;19.446;2023-02-28T00:59:24;5.72;;;3.42;;
18853;SDS011;9556;49.374;19.446;2023-02-28T01:01:52;5.53;;;3.53;;
18853;SDS011;9556;49.374;19.446;2023-02-28T01:04:20;5.32;;;3.60;;
18853;SDS011;9556;49.374;19.446;2023-02-28T01:06:47;6.70;;;4.00;;
18853;SDS011;9556;49.374;19.446;2023-02-28T01:09:15;5.10;;;3.40;;
18853;SDS011;9556;49.374;19.446;2023-02-28T01:11:42;4.57;;;3.40;;
18853;SDS011;9556;49.374;19.446;2023-02-28T01:14:11;5.23;;;3.40;;
18853;SDS011;9556;49.374;19.446;2023-02-28T01:16:38;4.60;;;3.13;;
18853;SDS011;9556;49.374;19.446;2023-02-28T01:19:06;4.97;;;3.60;;
18853;SDS011;9556;49.374;19.446;2023-02-28T01:21:34;5.27;;;3.20;;
18853;SDS011;9556;49.374;19.446;2023-02-28T01:24:01;4.43;;;3.30;;
18853;SDS011;9556;49.374;19.446;2023-02-28T01:26:29;6.23;;;3.50;;
18853;SDS011;9556;49.374;19.446;2023-02-28T01:28:56;5.60;;;3.70;;
18853;SDS011;9556;49.374;19.446;2023-02-28T01:31:23;4.63;;;3.30;;
18853;SDS011;9556;49.374;19.446;2023-02-28T01:33:50;5.30;;;3.40;;
18853;SDS011;9556;49.374;19.446;2023-02-28T01:36:18;5.40;;;3.60;;
18853;SDS011;9556;49.374;19.446;2023-02-28T01:38:47;5.38;;;3.60;;
18853;SDS011;9556;49.374;19.446;2023-02-28T01:41:15;5.90;;;3.53;;
18853;SDS011;9556;49.374;19.446;2023-02-28T01:43:53;4.73;;;3.27;;
18853;SDS011;9556;49.374;19.446;2023-02-28T01:46:21;4.77;;;2.93;;
18853;SDS011;9556;49.374;19.446;2023-02-28T01:48:49;4.77;;;3.10;;
18853;SDS011;9556;49.374;19.446;2023-02-28T01:51:18;4.75;;;2.97;;
18853;SDS011;9556;49.374;19.446;2023-02-28T01:53:49;5.53;;;3.30;;
18853;SDS011;9556;49.374;19.446;2023-02-28T01:56:18;7.23;;;3.60;;
18853;SDS011;9556;49.374;19.446;2023-02-28T01:58:47;4.20;;;3.00;;
18853;SDS011;9556;49.374;19.446;2023-02-28T02:01:14;5.05;;;3.00;;
18853;SDS011;9556;49.374;19.446;2023-02-28T02:03:46;5.00;;;3.30;;
18853;SDS011;9556;49.374;19.446;2023-02-28T02:06:20;5.03;;;3.23;;
18853;SDS011;9556;49.374;19.446;2023-02-28T02:08:48;6.03;;;3.00;;
18853;SDS011;9556;49.374;19.446;2023-02-28T02:11:17;5.03;;;3.33;;
18853;SDS011;9556;49.374;19.446;2023-02-28T02:13:58;5.03;;;3.00;;
18853;SDS011;9556;49.374;19.446;2023-02-28T02:16:32;4.40;;;3.00;;
18853;SDS011;9556;49.374;19.446;2023-02-28T02:19:03;5.23;;;3.03;;
18853;SDS011;9556;49.374;19.446;2023-02-28T02:24:26;4.40;;;2.97;;
18853;SDS011;9556;49.374;19.446;2023-02-28T02:27:09;4.63;;;3.07;;
18853;SDS011;9556;49.374;19.446;2023-02-28T02:29:47;4.20;;;2.73;;
18853;SDS011;9556;49.374;19.446;2023-02-28T02:32:35;3.93;;;2.63;;
18853;SDS011;9556;49.374;19.446;2023-02-28T02:35:12;3.83;;;3.00;;
18853;SDS011;9556;49.374;19.446;2023-02-28T02:37:42;5.97;;;3.30;;
18853;SDS011;9556;49.374;19.446;2023-02-28T02:40:11;4.97;;;2.88;;
18853;SDS011;9556;49.374;19.446;2023-02-28T02:42:40;4.40;;;2.87;;
18853;SDS011;9556;49.374;19.446;2023-02-28T02:45:09;5.27;;;3.17;;
18853;SDS011;9556;49.374;19.446;2023-02-28T02:47:37;4.93;;;3.13;;
18853;SDS011;9556;49.374;19.446;2023-02-28T02:50:07;5.13;;;3.17;;
18853;SDS011;9556;49.374;19.446;2023-02-28T02:52:37;4.53;;;3.22;;
18853;SDS011;9556;49.374;19.446;2023-02-28T02:55:05;4.37;;;3.00;;
18853;SDS011;9556;49.374;19.446;2023-02-28T02:57:36;5.03;;;3.37;;
18853;SDS011;9556;49.374;19.446;2023-02-28T03:00:05;4.20;;;3.10;;
18853;SDS011;9556;49.374;19.446;2023-02-28T03:02:33;3.97;;;2.87;;
18853;SDS011;9556;49.374;19.446;2023-02-28T03:05:03;5.80;;;3.03;;
18853;SDS011;9556;49.374;19.446;2023-02-28T03:07:31;4.27;;;3.40;;
18853;SDS011;9556;49.374;19.446;2023-02-28T03:10:00;4.97;;;3.28;;
18853;SDS011;9556;49.374;19.446;2023-02-28T03:12:28;5.80;;;3.43;;
18853;SDS011;9556;49.374;19.446;2023-02-28T03:15:01;4.27;;;2.80;;
18853;SDS011;9556;49.374;19.446;2023-02-28T03:17:34;5.70;;;3.20;;
18853;SDS011;9556;49.374;19.446;2023-02-28T03:20:07;5.03;;;3.27;;
18853;SDS011;9556;49.374;19.446;2023-02-28T03:25:27;4.43;;;2.90;;
18853;SDS011;9556;49.374;19.446;2023-02-28T03:28:00;4.60;;;3.03;;
18853;SDS011;9556;49.374;19.446;2023-02-28T03:30:29;6.13;;;3.00;;
18853;SDS011;9556;49.374;19.446;2023-02-28T03:33:01;4.33;;;2.90;;
18853;SDS011;9556;49.374;19.446;2023-02-28T03:35:31;3.93;;;2.90;;
18853;SDS011;9556;49.374;19.446;2023-02-28T03:38:00;4.30;;;3.10;;
18853;SDS011;9556;49.374;19.446;2023-02-28T03:40:30;4.87;;;2.93;;
18853;SDS011;9556;49.374;19.446;2023-02-28T03:42:59;3.77;;;2.67;;
18853;SDS011;9556;49.374;19.446;2023-02-28T03:45:29;4.87;;;3.00;;
18853;SDS011;9556;49.374;19.446;2023-02-28T03:47:58;4.27;;;2.87;;
18853;SDS011;9556;49.374;19.446;2023-02-28T03:50:29;3.80;;;2.70;;
18853;SDS011;9556;49.374;19.446;2023-02-28T03:53:02;4.40;;;3.00;;
18853;SDS011;9556;49.374;19.446;2023-02-28T03:55:34;4.70;;;2.97;;
18853;SDS011;9556;49.374;19.446;2023-02-28T03:58:05;4.23;;;2.53;;
18853;SDS011;9556;49.374;19.446;2023-02-28T04:00:35;3.67;;;2.67;;
18853;SDS011;9556;49.374;19.446;2023-02-28T04:03:03;4.10;;;2.70;;
18853;SDS011;9556;49.374;19.446;2023-02-28T04:05:31;5.07;;;3.07;;
18853;SDS011;9556;49.374;19.446;2023-02-28T04:08:03;4.27;;;2.90;;
18853;SDS011;9556;49.374;19.446;2023-02-28T04:10:30;4.53;;;2.80;;
18853;SDS011;9556;49.374;19.446;2023-02-28T04:12:58;3.90;;;2.60;;
18853;SDS011;9556;49.374;19.446;2023-02-28T04:15:25;4.00;;;2.80;;
18853;SDS011;9556;49.374;19.446;2023-02-28T04:17:53;4.80;;;3.10;;
18853;SDS011;9556;49.374;19.446;2023-02-28T04:20:20;4.37;;;3.00;;
18853;SDS011;9556;49.374;19.446;2023-02-28T04:22:47;3.50;;;2.40;;
18853;SDS011;9556;49.374;19.446;2023-02-28T04:25:14;3.47;;;2.30;;
18853;SDS011;9556;49.374;19.446;2023-02-28T04:27:41;4.43;;;2.80;;
18853;SDS011;9556;49.374;19.446;2023-02-28T04:30:11;4.23;;;2.73;;
18853;SDS011;9556;49.374;19.446;2023-02-28T04:32:38;4.47;;;2.80;;
18853;SDS011;9556;49.374;19.446;2023-02-28T04:35:06;4.67;;;2.80;;
18853;SDS011;9556;49.374;19.446;2023-02-28T04:37:33;3.20;;;2.30;;
18853;SDS011;9556;49.374;19.446;2023-02-28T04:40:02;3.63;;;2.50;;
18853;SDS011;9556;49.374;19.446;2023-02-28T04:42:29;3.67;;;2.67;;
18853;SDS011;9556;49.374;19.446;2023-02-28T04:45:00;4.37;;;2.43;;
18853;SDS011;9556;49.374;19.446;2023-02-28T04:47:29;4.47;;;2.73;;
18853;SDS011;9556;49.374;19.446;2023-02-28T04:49:56;3.57;;;2.47;;
18853;SDS011;9556;49.374;19.446;2023-02-28T04:52:23;4.27;;;2.87;;
18853;SDS011;9556;49.374;19.446;2023-02-28T04:54:50;5.10;;;3.00;;
18853;SDS011;9556;49.374;19.446;2023-02-28T04:57:17;4.20;;;2.80;;
18853;SDS011;9556;49.374;19.446;2023-02-28T04:59:44;5.07;;;3.00;;
18853;SDS011;9556;49.374;19.446;2023-02-28T05:02:11;3.67;;;2.70;;
18853;SDS011;9556;49.374;19.446;2023-02-28T05:04:40;4.47;;;2.93;;
18853;SDS011;9556;49.374;19.446;2023-02-28T05:07:07;4.47;;;2.77;;
18853;SDS011;9556;49.374;19.446;2023-02-28T05:09:34;4.93;;;3.17;;
18853;SDS011;9556;49.374;19.446;2023-02-28T05:12:02;4.77;;;3.10;;
18853;SDS011;9556;49.374;19.446;2023-02-28T05:14:29;5.73;;;3.03;;
18853;SDS011;9556;49.374;19.446;2023-02-28T05:16:56;4.00;;;2.63;;
18853;SDS011;9556;49.374;19.446;2023-02-28T05:19:23;4.27;;;2.97;;
18853;SDS011;9556;49.374;19.446;2023-02-28T05:21:52;4.67;;;3.30;;
18853;SDS011;9556;49.374;19.446;2023-02-28T05:24:19;4.63;;;2.97;;
18853;SDS011;9556;49.374;19.446;2023-02-28T05:26:49;4.83;;;3.10;;
18853;SDS011;9556;49.374;19.446;2023-02-28T05:29:17;5.43;;;3.20;;
18853;SDS011;9556;49.374;19.446;2023-02-28T05:31:44;4.93;;;2.87;;
18853;SDS011;9556;49.374;19.446;2023-02-28T05:34:12;4.13;;;3.10;;
18853;SDS011;9556;49.374;19.446;2023-02-28T05:36:41;4.80;;;3.23;;
18853;SDS011;9556;49.374;19.446;2023-02-28T05:39:10;5.10;;;2.83;;
18853;SDS011;9556;49.374;19.446;2023-02-28T05:41:39;4.33;;;2.87;;
18853;SDS011;9556;49.374;19.446;2023-02-28T05:44:06;4.63;;;2.90;;
18853;SDS011;9556;49.374;19.446;2023-02-28T05:46:33;4.27;;;2.90;;
18853;SDS011;9556;49.374;19.446;2023-02-28T05:49:01;3.70;;;2.70;;
18853;SDS011;9556;49.374;19.446;2023-02-28T05:51:28;4.60;;;2.80;;
18853;SDS011;9556;49.374;19.446;2023-02-28T05:53:58;3.93;;;2.77;;
18853;SDS011;9556;49.374;19.446;2023-02-28T05:56:27;4.93;;;3.07;;
18853;SDS011;9556;49.374;19.446;2023-02-28T05:58:54;4.43;;;3.00;;
18853;SDS011;9556;49.374;19.446;2023-02-28T06:01:23;4.85;;;3.00;;
18853;SDS011;9556;49.374;19.446;2023-02-28T06:03:50;4.67;;;3.10;;
18853;SDS011;9556;49.374;19.446;2023-02-28T06:06:17;4.10;;;2.53;;
18853;SDS011;9556;49.374;19.446;2023-02-28T06:08:45;4.40;;;3.00;;
18853;SDS011;9556;49.374;19.446;2023-02-28T06:11:12;5.27;;;3.50;;
18853;SDS011;9556;49.374;19.446;2023-02-28T06:13:40;6.50;;;3.33;;
18853;SDS011;9556;49.374;19.446;2023-02-28T06:16:08;8.47;;;3.30;;
18853;SDS011;9556;49.374;19.446;2023-02-28T06:18:36;4.17;;;2.93;;
18853;SDS011;9556;49.374;19.446;2023-02-28T06:21:03;6.37;;;3.40;;
18853;SDS011;9556;49.374;19.446;2023-02-28T06:23:30;4.53;;;3.27;;
18853;SDS011;9556;49.374;19.446;2023-02-28T06:25:57;6.43;;;3.50;;
18853;SDS011;9556;49.374;19.446;2023-02-28T06:28:30;6.03;;;3.40;;
18853;SDS011;9556;49.374;19.446;2023-02-28T06:30:58;5.33;;;2.73;;
18853;SDS011;9556;49.374;19.446;2023-02-28T06:33:26;13.90;;;3.13;;
18853;SDS011;9556;49.374;19.446;2023-02-28T06:35:53;6.50;;;3.03;;
18853;SDS011;9556;49.374;19.446;2023-02-28T06:38:20;6.00;;;3.17;;
18853;SDS011;9556;49.374;19.446;2023-02-28T06:40:52;8.83;;;3.37;;
18853;SDS011;9556;49.374;19.446;2023-02-28T06:43:19;6.30;;;3.90;;
18853;SDS011;9556;49.374;19.446;2023-02-28T06:45:47;7.83;;;3.90;;
18853;SDS011;9556;49.374;19.446;2023-02-28T06:48:15;13.63;;;3.77;;
18853;SDS011;9556;49.374;19.446;2023-02-28T06:50:42;13.33;;;3.93;;
18853;SDS011;9556;49.374;19.446;2023-02-28T06:53:10;7.80;;;3.80;;
18853;SDS011;9556;49.374;19.446;2023-02-28T06:55:37;7.07;;;3.80;;
18853;SDS011;9556;49.374;19.446;2023-02-28T06:58:04;6.20;;;3.57;;
18853;SDS011;9556;49.374;19.446;2023-02-28T07:00:39;6.10;;;3.33;;
18853;SDS011;9556;49.374;19.446;2023-02-28T07:03:07;7.43;;;3.80;;
18853;SDS011;9556;49.374;19.446;2023-02-28T07:05:36;7.87;;;3.57;;
18853;SDS011;9556;49.374;19.446;2023-02-28T07:08:03;5.30;;;3.47;;
18853;SDS011;9556;49.374;19.446;2023-02-28T07:10:31;5.23;;;3.30;;
18853;SDS011;9556;49.374;19.446;2023-02-28T07:12:58;8.33;;;3.40;;
18853;SDS011;9556;49.374;19.446;2023-02-28T07:15:26;7.43;;;3.43;;
18853;SDS011;9556;49.374;19.446;2023-02-28T07:17:53;8.43;;;3.33;;
18853;SDS011;9556;49.374;19.446;2023-02-28T07:20:21;13.70;;;3.30;;
18853;SDS011;9556;49.374;19.446;2023-02-28T07:22:50;7.40;;;3.47;;
18853;SDS011;9556;49.374;19.446;2023-02-28T07:25:21;6.27;;;3.40;;
18853;SDS011;9556;49.374;19.446;2023-02-28T07:27:48;6.57;;;3.53;;
18853;SDS011;9556;49.374;19.446;2023-02-28T07:30:16;6.63;;;3.50;;
18853;SDS011;9556;49.374;19.446;2023-02-28T07:32:43;4.80;;;3.30;;
18853;SDS011;9556;49.374;19.446;2023-02-28T07:35:10;9.07;;;3.53;;
18853;SDS011;9556;49.374;19.446;2023-02-28T07:37:37;10.48;;;3.33;;
18853;SDS011;9556;49.374;19.446;2023-02-28T07:40:08;9.10;;;3.43;;
18853;SDS011;9556;49.374;19.446;2023-02-28T07:42:35;10.50;;;3.20;;
18853;SDS011;9556;49.374;19.446;2023-02-28T07:45:03;13.53;;;3.30;;
18853;SDS011;9556;49.374;19.446;2023-02-28T07:47:30;11.57;;;3.83;;
18853;SDS011;9556;49.374;19.446;2023-02-28T07:49:57;12.33;;;3.30;;
18853;SDS011;9556;49.374;19.446;2023-02-28T07:52:25;9.17;;;3.40;;
18853;SDS011;9556;49.374;19.446;2023-02-28T07:54:52;7.60;;;3.60;;
18853;SDS011;9556;49.374;19.446;2023-02-28T07:57:20;5.73;;;3.57;;
18853;SDS011;9556;49.374;19.446;2023-02-28T07:59:48;10.63;;;4.00;;
18853;SDS011;9556;49.374;19.446;2023-02-28T08:02:15;25.77;;;3.53;;
18853;SDS011;9556;49.374;19.446;2023-02-28T08:04:43;9.30;;;3.50;;
18853;SDS011;9556;49.374;19.446;2023-02-28T08:07:14;8.77;;;3.53;;
18853;SDS011;9556;49.374;19.446;2023-02-28T08:09:41;11.23;;;3.27;;
18853;SDS011;9556;49.374;19.446;2023-02-28T08:12:08;5.90;;;3.43;;
18853;SDS011;9556;49.374;19.446;2023-02-28T08:14:37;5.13;;;3.00;;
18853;SDS011;9556;49.374;19.446;2023-02-28T08:17:05;8.93;;;3.47;;
18853;SDS011;9556;49.374;19.446;2023-02-28T08:19:32;6.97;;;3.53;;
18853;SDS011;9556;49.374;19.446;2023-02-28T08:22:00;10.83;;;3.10;;
18853;SDS011;9556;49.374;19.446;2023-02-28T08:24:27;6.57;;;3.20;;
18853;SDS011;9556;49.374;19.446;2023-02-28T08:26:54;6.10;;;3.43;;
18853;SDS011;9556;49.374;19.446;2023-02-28T08:29:21;5.20;;;3.10;;
18853;SDS011;9556;49.374;19.446;2023-02-28T08:31:50;7.80;;;3.50;;
18853;SDS011;9556;49.374;19.446;2023-02-28T08:34:17;6.70;;;3.60;;
18853;SDS011;9556;49.374;19.446;2023-02-28T08:36:44;5.63;;;3.13;;
18853;SDS011;9556;49.374;19.446;2023-02-28T08:39:11;7.37;;;3.37;;
18853;SDS011;9556;49.374;19.446;2023-02-28T08:41:39;11.50;;;3.80;;
18853;SDS011;9556;49.374;19.446;2023-02-28T08:44:06;8.53;;;3.70;;
18853;SDS011;9556;49.374;19.446;2023-02-28T08:46:33;6.77;;;3.63;;
18853;SDS011;9556;49.374;19.446;2023-02-28T08:49:02;7.83;;;3.50;;
18853;SDS011;9556;49.374;19.446;2023-02-28T08:51:29;8.23;;;3.60;;
18853;SDS011;9556;49.374;19.446;2023-02-28T08:53:59;8.13;;;3.50;;
18853;SDS011;9556;49.374;19.446;2023-02-28T08:56:26;11.43;;;4.27;;
18853;SDS011;9556;49.374;19.446;2023-02-28T08:58:54;8.27;;;3.50;;
18853;SDS011;9556;49.374;19.446;2023-02-28T09:01:22;8.97;;;3.93;;
18853;SDS011;9556;49.374;19.446;2023-02-28T09:03:50;11.80;;;4.60;;
18853;SDS011;9556;49.374;19.446;2023-02-28T09:06:20;9.50;;;4.10;;
18853;SDS011;9556;49.374;19.446;2023-02-28T09:08:47;9.83;;;4.13;;
18853;SDS011;9556;49.374;19.446;2023-02-28T09:11:14;11.43;;;3.77;;
18853;SDS011;9556;49.374;19.446;2023-02-28T09:13:43;10.07;;;3.80;;
18853;SDS011;9556;49.374;19.446;2023-02-28T09:16:12;17.33;;;4.20;;
18853;SDS011;9556;49.374;19.446;2023-02-28T09:18:39;16.27;;;4.00;;
18853;SDS011;9556;49.374;19.446;2023-02-28T09:21:07;12.50;;;3.67;;
18853;SDS011;9556;49.374;19.446;2023-02-28T09:23:36;11.07;;;3.80;;
18853;SDS011;9556;49.374;19.446;2023-02-28T09:26:04;11.20;;;4.27;;
18853;SDS011;9556;49.374;19.446;2023-02-28T09:28:31;9.10;;;3.70;;
18853;SDS011;9556;49.374;19.446;2023-02-28T09:30:58;7.87;;;3.90;;
18853;SDS011;9556;49.374;19.446;2023-02-28T09:33:26;7.83;;;3.90;;
18853;SDS011;9556;49.374;19.446;2023-02-28T09:35:57;15.67;;;4.00;;
18853;SDS011;9556;49.374;19.446;2023-02-28T09:38:24;8.93;;;3.53;;
18853;SDS011;9556;49.374;19.446;2023-02-28T09:40:55;13.70;;;4.30;;
18853;SDS011;9556;49.374;19.446;2023-02-28T09:43:23;12.60;;;5.00;;
18853;SDS011;9556;49.374;19.446;2023-02-28T09:45:52;13.70;;;4.77;;
18853;SDS011;9556;49.374;19.446;2023-02-28T09:48:24;9.40;;;4.70;;
18853;SDS011;9556;49.374;19.446;2023-02-28T09:50:55;12.33;;;4.23;;
18853;SDS011;9556;49.374;19.446;2023-02-28T09:53:26;11.43;;;4.30;;
18853;SDS011;9556;49.374;19.446;2023-02-28T09:56:01;23.37;;;4.13;;
18853;SDS011;9556;49.374;19.446;2023-02-28T09:58:31;11.03;;;4.10;;
18853;SDS011;9556;49.374;19.446;2023-02-28T10:01:02;8.50;;;4.23;;
18853;SDS011;9556;49.374;19.446;2023-02-28T10:03:32;12.20;;;4.10;;
18853;SDS011;9556;49.374;19.446;2023-02-28T10:06:05;13.97;;;4.20;;
18853;SDS011;9556;49.374;19.446;2023-02-28T10:08:36;9.17;;;4.20;;
18853;SDS011;9556;49.374;19.446;2023-02-28T10:11:09;10.70;;;4.20;;
18853;SDS011;9556;49.374;19.446;2023-02-28T10:13:38;15.57;;;4.50;;
18853;SDS011;9556;49.374;19.446;2023-02-28T10:16:10;23.67;;;4.40;;
18853;SDS011;9556;49.374;19.446;2023-02-28T10:18:40;14.13;;;4.50;;
18853;SDS011;9556;49.374;19.446;2023-02-28T10:21:10;9.17;;;4.57;;
18853;SDS011;9556;49.374;19.446;2023-02-28T10:23:41;14.50;;;4.23;;
18853;SDS011;9556;49.374;19.446;2023-02-28T10:26:12;16.87;;;4.43;;
18853;SDS011;9556;49.374;19.446;2023-02-28T10:28:41;10.60;;;4.60;;
18853;SDS011;9556;49.374;19.446;2023-02-28T10:31:08;9.33;;;4.33;;
18853;SDS011;9556;49.374;19.446;2023-02-28T10:33:38;14.37;;;4.30;;
18853;SDS011;9556;49.374;19.446;2023-02-28T10:36:05;12.67;;;4.17;;
18853;SDS011;9556;49.374;19.446;2023-02-28T10:38:34;7.88;;;3.63;;
18853;SDS011;9556;49.374;19.446;2023-02-28T10:41:03;8.23;;;4.03;;
18853;SDS011;9556;49.374;19.446;2023-02-28T10:43:31;10.67;;;4.47;;
18853;SDS011;9556;49.374;19.446;2023-02-28T10:45:59;14.10;;;4.83;;
18853;SDS011;9556;49.374;19.446;2023-02-28T10:48:36;12.63;;;4.70;;
18853;SDS011;9556;49.374;19.446;2023-02-28T10:51:05;17.83;;;4.80;;
18853;SDS011;9556;49.374;19.446;2023-02-28T10:53:34;10.97;;;4.27;;
18853;SDS011;9556;49.374;19.446;2023-02-28T10:56:03;9.77;;;4.07;;
18853;SDS011;9556;49.374;19.446;2023-02-28T10:58:42;6.83;;;3.77;;
18853;SDS011;9556;49.374;19.446;2023-02-28T11:01:12;9.37;;;4.00;;
18853;SDS011;9556;49.374;19.446;2023-02-28T11:03:40;11.93;;;3.77;;
18853;SDS011;9556;49.374;19.446;2023-02-28T11:06:08;7.23;;;3.50;;
18853;SDS011;9556;49.374;19.446;2023-02-28T11:08:46;12.27;;;3.73;;
18853;SDS011;9556;49.374;19.446;2023-02-28T11:11:14;11.13;;;3.57;;
18853;SDS011;9556;49.374;19.446;2023-02-28T11:13:44;5.90;;;3.60;;
18853;SDS011;9556;49.374;19.446;2023-02-28T11:16:13;11.17;;;3.70;;
18853;SDS011;9556;49.374;19.446;2023-02-28T11:18:42;8.27;;;3.30;;
18853;SDS011;9556;49.374;19.446;2023-02-28T11:21:15;8.60;;;3.40;;
18853;SDS011;9556;49.374;19.446;2023-02-28T11:23:43;6.27;;;3.67;;
18853;SDS011;9556;49.374;19.446;2023-02-28T11:26:10;6.87;;;3.67;;
18853;SDS011;9556;49.374;19.446;2023-02-28T11:28:38;6.50;;;3.30;;
18853;SDS011;9556;49.374;19.446;2023-02-28T11:31:14;9.00;;;3.13;;
18853;SDS011;9556;49.374;19.446;2023-02-28T11:33:42;8.00;;;3.13;;
18853;SDS011;9556;49.374;19.446;2023-02-28T11:36:11;8.13;;;3.33;;
18853;SDS011;9556;49.374;19.446;2023-02-28T11:38:39;13.27;;;3.40;;
18853;SDS011;9556;49.374;19.446;2023-02-28T11:43:56;8.73;;;3.35;;
18853;SDS011;9556;49.374;19.446;2023-02-28T11:46:29;7.47;;;3.20;;
18853;SDS011;9556;49.374;19.446;2023-02-28T11:49:02;9.03;;;3.33;;
18853;SDS011;9556;49.374;19.446;2023-02-28T11:51:34;13.30;;;3.10;;
18853;SDS011;9556;49.374;19.446;2023-02-28T11:56:48;12.67;;;3.50;;
18853;SDS011;9556;49.374;19.446;2023-02-28T11:59:22;9.30;;;3.22;;
18853;SDS011;9556;49.374;19.446;2023-02-28T12:04:42;5.87;;;3.23;;
18853;SDS011;9556;49.374;19.446;2023-02-28T12:07:14;6.40;;;3.13;;
18853;SDS011;9556;49.374;19.446;2023-02-28T12:09:47;8.77;;;3.20;;
18853;SDS011;9556;49.374;19.446;2023-02-28T12:12:23;7.85;;;3.15;;
18853;SDS011;9556;49.374;19.446;2023-02-28T12:14:58;7.28;;;2.90;;
18853;SDS011;9556;49.374;19.446;2023-02-28T12:17:32;26.00;;;4.10;;
18853;SDS011;9556;49.374;19.446;2023-02-28T12:20:08;12.07;;;3.20;;
18853;SDS011;9556;49.374;19.446;2023-02-28T12:22:42;7.63;;;3.23;;
18853;SDS011;9556;49.374;19.446;2023-02-28T12:25:21;12.75;;;3.20;;
18853;SDS011;9556;49.374;19.446;2023-02-28T12:27:49;9.80;;;4.07;;
18853;SDS011;9556;49.374;19.446;2023-02-28T12:30:19;9.70;;;4.40;;
18853;SDS011;9556;49.374;19.446;2023-02-28T12:32:48;10.13;;;3.90;;
18853;SDS011;9556;49.374;19.446;2023-02-28T12:35:19;15.10;;;4.00;;
18853;SDS011;9556;49.374;19.446;2023-02-28T12:37:50;8.10;;;3.63;;
18853;SDS011;9556;49.374;19.446;2023-02-28T12:40:20;7.38;;;3.55;;
18853;SDS011;9556;49.374;19.446;2023-02-28T12:42:49;9.17;;;3.60;;
18853;SDS011;9556;49.374;19.446;2023-02-28T12:45:18;14.75;;;4.05;;
18853;SDS011;9556;49.374;19.446;2023-02-28T12:47:46;9.10;;;3.63;;
18853;SDS011;9556;49.374;19.446;2023-02-28T12:50:19;12.10;;;4.47;;
18853;SDS011;9556;49.374;19.446;2023-02-28T12:52:49;10.97;;;4.13;;
18853;SDS011;9556;49.374;19.446;2023-02-28T12:55:20;11.37;;;4.70;;
18853;SDS011;9556;49.374;19.446;2023-02-28T12:57:52;18.02;;;4.20;;
18853;SDS011;9556;49.374;19.446;2023-02-28T13:00:23;13.70;;;4.23;;
18853;SDS011;9556;49.374;19.446;2023-02-28T13:02:56;10.70;;;4.00;;
18853;SDS011;9556;49.374;19.446;2023-02-28T13:05:44;9.93;;;4.07;;
18853;SDS011;9556;49.374;19.446;2023-02-28T13:08:19;11.43;;;4.43;;
18853;SDS011;9556;49.374;19.446;2023-02-28T13:10:50;9.73;;;4.13;;
18853;SDS011;9556;49.374;19.446;2023-02-28T13:13:20;8.30;;;3.83;;
18853;SDS011;9556;49.374;19.446;2023-02-28T13:15:59;20.45;;;4.72;;
18853;SDS011;9556;49.374;19.446;2023-02-28T13:18:28;12.47;;;4.60;;
18853;SDS011;9556;49.374;19.446;2023-02-28T13:21:03;12.27;;;4.22;;
18853;SDS011;9556;49.374;19.446;2023-02-28T13:23:39;10.67;;;4.60;;
18853;SDS011;9556;49.374;19.446;2023-02-28T13:26:06;8.50;;;4.72;;
18853;SDS011;9556;49.374;19.446;2023-02-28T13:31:22;9.73;;;4.10;;
18853;SDS011;9556;49.374;19.446;2023-02-28T13:34:06;11.67;;;6.07;;
18853;SDS011;9556;49.374;19.446;2023-02-28T13:36:40;13.60;;;5.20;;
18853;SDS011;9556;49.374;19.446;2023-02-28T13:41:50;15.13;;;6.67;;
18853;SDS011;9556;49.374;19.446;2023-02-28T13:44:18;14.27;;;4.77;;
18853;SDS011;9556;49.374;19.446;2023-02-28T13:49:33;11.90;;;5.77;;
18853;SDS011;9556;49.374;19.446;2023-02-28T13:52:06;15.10;;;4.53;;
18853;SDS011;9556;49.374;19.446;2023-02-28T13:54:40;9.65;;;4.95;;
18853;SDS011;9556;49.374;19.446;2023-02-28T13:57:14;13.48;;;5.05;;
18853;SDS011;9556;49.374;19.446;2023-02-28T13:59:49;9.60;;;4.50;;
18853;SDS011;9556;49.374;19.446;2023-02-28T14:02:28;8.15;;;4.68;;
18853;SDS011;9556;49.374;19.446;2023-02-28T14:05:01;14.00;;;4.10;;
18853;SDS011;9556;49.374;19.446;2023-02-28T14:07:31;9.23;;;4.82;;
18853;SDS011;9556;49.374;19.446;2023-02-28T14:10:00;15.13;;;4.68;;
18853;SDS011;9556;49.374;19.446;2023-02-28T14:15:30;21.98;;;5.55;;
18853;SDS011;9556;49.374;19.446;2023-02-28T14:18:02;16.58;;;5.00;;
18853;SDS011;9556;49.374;19.446;2023-02-28T14:20:31;10.80;;;5.00;;
18853;SDS011;9556;49.374;19.446;2023-02-28T14:23:02;10.35;;;4.88;;
18853;SDS011;9556;49.374;19.446;2023-02-28T14:25:33;10.43;;;5.50;;
18853;SDS011;9556;49.374;19.446;2023-02-28T14:28:07;12.83;;;5.83;;
18853;SDS011;9556;49.374;19.446;2023-02-28T14:30:48;18.00;;;5.18;;
18853;SDS011;9556;49.374;19.446;2023-02-28T14:33:35;16.42;;;5.13;;
18853;SDS011;9556;49.374;19.446;2023-02-28T14:36:11;13.40;;;5.10;;
18853;SDS011;9556;49.374;19.446;2023-02-28T14:38:42;21.35;;;5.32;;
18853;SDS011;9556;49.374;19.446;2023-02-28T14:41:15;9.65;;;5.07;;
18853;SDS011;9556;49.374;19.446;2023-02-28T14:43:50;14.50;;;5.20;;
18853;SDS011;9556;49.374;19.446;2023-02-28T14:46:18;12.43;;;4.50;;
18853;SDS011;9556;49.374;19.446;2023-02-28T14:48:45;7.77;;;4.50;;
18853;SDS011;9556;49.374;19.446;2023-02-28T14:51:17;15.60;;;6.97;;
18853;SDS011;9556;49.374;19.446;2023-02-28T14:53:48;9.13;;;4.87;;
18853;SDS011;9556;49.374;19.446;2023-02-28T14:56:30;12.53;;;4.43;;
18853;SDS011;9556;49.374;19.446;2023-02-28T14:59:00;9.17;;;4.90;;
18853;SDS011;9556;49.374;19.446;2023-02-28T15:01:27;17.80;;;8.03;;
18853;SDS011;9556;49.374;19.446;2023-02-28T15:03:58;21.27;;;6.85;;
18853;SDS011;9556;49.374;19.446;2023-02-28T15:06:26;15.55;;;7.18;;
18853;SDS011;9556;49.374;19.446;2023-02-28T15:09:08;17.85;;;10.10;;
18853;SDS011;9556;49.374;19.446;2023-02-28T15:11:35;13.88;;;5.88;;
18853;SDS011;9556;49.374;19.446;2023-02-28T15:14:03;10.30;;;5.72;;
18853;SDS011;9556;49.374;19.446;2023-02-28T15:16:31;19.48;;;6.20;;
18853;SDS011;9556;49.374;19.446;2023-02-28T15:19:00;17.38;;;6.03;;
18853;SDS011;9556;49.374;19.446;2023-02-28T15:21:29;11.98;;;5.95;;